Time;durP1;ratioP1;P1;durP2;ratioP2;P2;SDS_P1;SDS_P2;PMS_P1;PMS_P2;Temp;Humidity;BMP_temperature;BMP_pressure;BME280_temperature;BME280_humidity;BME280_pressure;Samples;Min_cycle;Max_cycle;Signal;HPM_P1;HPM_P2
2021/09/21 00:01:59;;;;;;;18.98;10.73;;;14.40;99.90;;;;;;5050915;28;20909;-54
2021/09/21 00:04:27;;;;;;;18.88;10.25;;;14.40;99.90;;;;;;5049856;28;20662;-54
2021/09/21 00:06:56;;;;;;;20.02;10.35;;;14.40;99.90;;;;;;5050033;28;20386;-54
2021/09/21 00:09:23;;;;;;;14.57;9.10;;;14.40;99.90;;;;;;5049454;28;20381;-54
2021/09/21 00:11:49;;;;;;;13.10;8.50;;;14.50;99.90;;;;;;5050172;28;20389;-54
2021/09/21 00:14:15;;;;;;;14.93;8.80;;;14.40;99.90;;;;;;5049609;28;20381;-55
2021/09/21 00:16:40;;;;;;;15.23;8.60;;;14.40;99.90;;;;;;5050291;28;20760;-54
2021/09/21 00:19:06;;;;;;;14.53;8.37;;;12.90;99.90;;;;;;5049832;28;20452;-55
2021/09/21 00:21:32;;;;;;;14.32;8.80;;;14.40;99.90;;;;;;5049718;28;20519;-55
2021/09/21 00:23:57;;;;;;;14.20;8.60;;;14.50;99.90;;;;;;5050206;28;20385;-54
2021/09/21 00:26:23;;;;;;;14.30;9.07;;;14.40;99.90;;;;;;5049338;28;20419;-54
2021/09/21 00:28:48;;;;;;;15.68;8.98;;;14.40;99.90;;;;;;5049983;28;20396;-54
2021/09/21 00:31:15;;;;;;;14.67;9.13;;;14.50;99.90;;;;;;5049612;28;20893;-54
2021/09/21 00:34:05;;;;;;;20.95;9.13;;;14.50;99.90;;;;;;5050135;28;20389;-54
2021/09/21 00:36:35;;;;;;;16.50;9.27;;;14.50;99.90;;;;;;5049796;28;20418;-54
2021/09/21 00:39:03;;;;;;;16.23;9.10;;;14.40;99.90;;;;;;5048704;28;20802;-54
2021/09/21 00:41:29;;;;;;;15.35;8.93;;;14.30;99.90;;;;;;5049270;28;20470;-54
2021/09/21 00:43:55;;;;;;;14.00;9.00;;;14.30;99.90;;;;;;5050002;28;20465;-54
2021/09/21 00:46:20;;;;;;;13.90;8.68;;;14.20;99.90;;;;;;5049214;28;20377;-54
2021/09/21 00:48:46;;;;;;;13.87;9.50;;;14.20;99.90;;;;;;5049833;28;20527;-54
2021/09/21 00:51:12;;;;;;;14.63;9.20;;;14.20;99.90;;;;;;5048860;28;20392;-54
2021/09/21 00:53:38;;;;;;;14.85;9.38;;;14.30;99.90;;;;;;5049757;28;20382;-54
2021/09/21 00:56:04;;;;;;;15.65;9.70;;;14.30;99.90;;;;;;5049748;28;20602;-54
2021/09/21 00:58:30;;;;;;;14.85;9.10;;;14.40;99.90;;;;;;5048735;28;20448;-54
2021/09/21 01:00:55;;;;;;;13.83;8.50;;;14.30;99.90;;;;;;5047941;28;20389;-54
2021/09/21 01:03:21;;;;;;;17.48;9.13;;;14.40;99.90;;;;;;5048898;28;20393;-54
2021/09/21 01:05:47;;;;;;;13.80;8.48;;;14.50;99.90;;;;;;5049553;28;20393;-54
2021/09/21 01:08:12;;;;;;;15.90;9.20;;;14.50;99.90;;;;;;5048661;28;20392;-55
2021/09/21 01:10:38;;;;;;;14.90;9.60;;;14.50;99.90;;;;;;5049367;28;20384;-54
2021/09/21 01:13:04;;;;;;;15.30;9.95;;;14.40;99.90;;;;;;5049568;28;20468;-54
2021/09/21 01:15:29;;;;;;;13.97;8.30;;;14.30;99.90;;;;;;5048653;28;20390;-55
2021/09/21 01:17:56;;;;;;;19.27;9.48;;;14.30;99.90;;;;;;5048296;28;20385;-55
2021/09/21 01:20:23;;;;;;;16.60;9.40;;;16.50;99.90;;;;;;5048288;28;20429;-55
2021/09/21 01:22:49;;;;;;;13.38;8.85;;;14.30;99.90;;;;;;5048610;28;20381;-55
2021/09/21 01:25:15;;;;;;;15.00;9.00;;;14.20;99.90;;;;;;5047482;28;20855;-55
2021/09/21 01:27:41;;;;;;;14.37;8.67;;;14.40;99.90;;;;;;5048748;28;20409;-54
2021/09/21 01:30:11;;;;;;;16.23;9.70;;;14.40;99.90;;;;;;5080987;28;20900;-55
2021/09/21 01:32:36;;;;;;;13.32;8.68;;;14.40;99.90;;;;;;5049383;28;20435;-54
2021/09/21 01:35:03;;;;;;;14.40;9.63;;;14.50;99.90;;;;;;5049096;28;20909;-55
2021/09/21 01:37:29;;;;;;;15.35;9.07;;;14.50;99.90;;;;;;5048224;28;20934;-53
2021/09/21 01:39:55;;;;;;;16.35;9.65;;;14.30;99.90;;;;;;5049230;28;20401;-53
2021/09/21 01:42:21;;;;;;;16.70;10.05;;;14.30;99.90;;;;;;5046969;28;20382;-54
2021/09/21 01:44:47;;;;;;;14.82;9.25;;;14.10;99.90;;;;;;5049257;28;20401;-54
2021/09/21 01:47:16;;;;;;;16.13;9.43;;;14.20;99.90;;;;;;5048383;28;20382;-54
2021/09/21 01:52:14;;;;;;;14.05;8.55;;;14.20;99.90;;;;;;5048421;28;20483;-55
2021/09/21 01:59:52;;;;;;;16.85;9.20;;;14.20;99.90;;;;;;5048713;28;20526;-54
2021/09/21 02:02:18;;;;;;;15.70;8.80;;;14.00;99.90;;;;;;5048510;28;20723;-54
2021/09/21 02:04:44;;;;;;;15.05;9.05;;;13.80;99.90;;;;;;5047794;28;20385;-54
2021/09/21 02:07:09;;;;;;;18.07;9.60;;;13.70;99.90;;;;;;5048161;28;20390;-55
2021/09/21 02:09:35;;;;;;;16.80;9.33;;;13.70;99.90;;;;;;5048404;28;20377;-54
2021/09/21 02:12:00;;;;;;;13.82;9.02;;;13.70;99.90;;;;;;5049074;28;20377;-54
2021/09/21 02:14:26;;;;;;;14.63;9.52;;;13.80;99.90;;;;;;5048448;28;20468;-54
2021/09/21 02:16:54;;;;;;;16.60;9.40;;;13.90;99.90;;;;;;5054424;28;20768;-54
2021/09/21 02:19:21;;;;;;;15.60;9.38;;;14.00;99.90;;;;;;5052913;28;20447;-54
2021/09/21 02:21:47;;;;;;;14.20;9.10;;;14.00;99.90;;;;;;5052710;28;20385;-54
2021/09/21 02:24:18;;;;;;;15.02;9.50;;;13.90;99.90;;;;;;5060097;28;20407;-54
2021/09/21 02:26:44;;;;;;;15.90;9.40;;;13.90;99.90;;;;;;5072783;28;20477;-54
2021/09/21 02:29:10;;;;;;;14.70;9.10;;;13.90;99.90;;;;;;5072162;28;20387;-55
2021/09/21 02:31:35;;;;;;;13.77;8.73;;;14.00;99.90;;;;;;5072161;28;20379;-54
2021/09/21 02:34:03;;;;;;;15.20;9.23;;;14.00;99.90;;;;;;5054903;28;20401;-54
2021/09/21 02:36:28;;;;;;;16.83;9.15;;;13.90;99.90;;;;;;5068137;28;20395;-54
2021/09/21 02:38:54;;;;;;;15.83;9.40;;;13.90;99.90;;;;;;5054421;28;20466;-54
2021/09/21 02:41:20;;;;;;;16.02;9.80;;;13.90;99.90;;;;;;5051728;28;20914;-54
2021/09/21 02:43:46;;;;;;;16.73;9.33;;;13.90;99.90;;;;;;5052258;28;20461;-54
2021/09/21 02:46:11;;;;;;;17.88;9.35;;;13.80;99.90;;;;;;5051178;28;20440;-55
2021/09/21 02:48:37;;;;;;;15.93;9.70;;;13.80;99.90;;;;;;5064918;28;20898;-54
2021/09/21 02:51:03;;;;;;;14.55;9.27;;;13.70;99.90;;;;;;5065336;28;20865;-54
2021/09/21 02:53:29;;;;;;;15.17;9.40;;;13.70;99.90;;;;;;5061441;28;20475;-54
2021/09/21 02:55:55;;;;;;;13.80;9.43;;;13.70;99.90;;;;;;5083994;28;20488;-54
2021/09/21 02:58:21;;;;;;;18.23;10.82;;;13.70;99.90;;;;;;5051311;28;20397;-54
2021/09/21 03:00:49;;;;;;;17.13;9.50;;;13.70;99.90;;;;;;5053482;28;20382;-54
2021/09/21 03:03:15;;;;;;;15.90;10.17;;;13.70;99.90;;;;;;5071087;28;20419;-54
2021/09/21 03:05:44;;;;;;;14.60;10.18;;;13.70;99.90;;;;;;5071950;28;20478;-54
2021/09/21 03:08:21;;;;;;;16.90;10.10;;;13.70;99.90;;;;;;5071472;28;20392;-54
2021/09/21 03:10:57;;;;;;;14.38;9.60;;;13.70;99.90;;;;;;5072009;28;20833;-54
2021/09/21 03:18:40;;;;;;;16.52;10.20;;;13.50;99.90;;;;;;5071842;28;20495;-54
2021/09/21 03:21:05;;;;;;;17.50;9.90;;;13.40;99.90;;;;;;5071747;28;20372;-52
2021/09/21 03:23:32;;;;;;;16.00;9.80;;;13.40;99.90;;;;;;5069421;28;20439;-54
2021/09/21 03:25:57;;;;;;;15.70;9.50;;;13.30;99.90;;;;;;5083563;28;20879;-54
2021/09/21 03:28:23;;;;;;;18.10;10.27;;;13.40;99.90;;;;;;5050923;28;20386;-54
2021/09/21 03:30:49;;;;;;;15.30;10.05;;;13.40;99.90;;;;;;5064349;28;20421;-54
2021/09/21 03:33:16;;;;;;;16.63;9.70;;;13.40;99.90;;;;;;5070717;28;20486;-54
2021/09/21 03:35:42;;;;;;;13.88;9.18;;;13.50;99.90;;;;;;5070091;28;20383;-54
2021/09/21 03:38:07;;;;;;;16.80;10.27;;;13.40;99.90;;;;;;5070983;28;20869;-54
2021/09/21 03:40:33;;;;;;;15.33;10.13;;;13.40;99.90;;;;;;5070978;28;20419;-54
2021/09/21 03:43:00;;;;;;;15.90;9.75;;;13.40;99.90;;;;;;5071592;28;20375;-54
2021/09/21 03:45:26;;;;;;;16.90;10.57;;;13.30;99.90;;;;;;5070473;28;20387;-54
2021/09/21 03:47:53;;;;;;;15.30;9.70;;;13.40;99.90;;;;;;5071003;28;20818;-54
2021/09/21 03:50:20;;;;;;;14.98;9.50;;;13.40;99.90;;;;;;5068929;28;20422;-54
2021/09/21 03:52:45;;;;;;;15.07;9.70;;;13.40;99.90;;;;;;5071147;28;20437;-54
2021/09/21 03:55:11;;;;;;;16.85;10.50;;;13.40;99.90;;;;;;5070519;28;20395;-55
2021/09/21 03:57:37;;;;;;;14.98;9.43;;;13.20;99.90;;;;;;5071043;28;20396;-52
2021/09/21 04:00:05;;;;;;;17.67;9.60;;;13.20;99.90;;;;;;5070868;28;20757;-54
2021/09/21 04:02:30;;;;;;;15.47;9.77;;;13.30;99.90;;;;;;5069438;28;20383;-54
2021/09/21 04:04:56;;;;;;;17.05;10.05;;;13.30;99.90;;;;;;5070170;28;20792;-54
2021/09/21 04:07:22;;;;;;;15.97;9.60;;;13.30;99.90;;;;;;5064858;28;20393;-54
2021/09/21 04:09:47;;;;;;;15.65;10.20;;;13.30;99.90;;;;;;5070171;28;20372;-54
2021/09/21 04:12:13;;;;;;;18.35;10.10;;;13.20;99.90;;;;;;5060831;28;20745;-54
2021/09/21 04:14:38;;;;;;;15.23;10.00;;;13.10;99.90;;;;;;5056926;28;20742;-55
2021/09/21 04:17:04;;;;;;;16.90;9.80;;;13.00;99.90;;;;;;5060711;28;20389;-54
2021/09/21 04:19:30;;;;;;;15.57;10.15;;;13.00;99.90;;;;;;5058373;28;21132;-54
2021/09/21 04:21:55;;;;;;;15.10;9.60;;;13.00;99.90;;;;;;5048284;28;20984;-54
2021/09/21 04:24:21;;;;;;;15.27;9.20;;;13.00;99.90;;;;;;5065172;28;20876;-54
2021/09/21 04:26:47;;;;;;;15.40;9.50;;;13.00;99.90;;;;;;5050701;28;21173;-54
2021/09/21 04:29:13;;;;;;;16.77;9.45;;;13.00;99.90;;;;;;5050041;28;20476;-54
2021/09/21 04:31:42;;;;;;;18.20;10.33;;;13.10;99.90;;;;;;5069983;28;20467;-54
2021/09/21 04:34:07;;;;;;;16.50;10.55;;;13.10;99.90;;;;;;5069568;28;20453;-54
2021/09/21 04:36:33;;;;;;;18.10;10.87;;;13.10;99.90;;;;;;5067807;28;20460;-54
2021/09/21 04:38:59;;;;;;;17.80;10.60;;;13.10;99.90;;;;;;5069520;28;20757;-54
2021/09/21 04:41:25;;;;;;;15.40;10.30;;;13.10;99.90;;;;;;5069030;28;20383;-54
2021/09/21 04:43:51;;;;;;;17.90;10.38;;;14.20;99.90;;;;;;5062772;28;20400;-54
2021/09/21 04:46:16;;;;;;;15.97;9.70;;;13.20;99.90;;;;;;5048653;28;20393;-54
2021/09/21 04:48:42;;;;;;;16.50;9.95;;;13.20;99.90;;;;;;5049174;28;20480;-54
2021/09/21 04:51:08;;;;;;;15.33;9.60;;;13.20;99.90;;;;;;5055340;28;20913;-54
2021/09/21 04:53:34;;;;;;;15.82;9.88;;;13.20;99.90;;;;;;5067602;28;21000;-54
2021/09/21 04:55:59;;;;;;;16.87;10.27;;;13.20;99.90;;;;;;5068476;28;20415;-54
2021/09/21 04:58:25;;;;;;;16.70;10.60;;;13.30;99.90;;;;;;5064397;28;20398;-54
2021/09/21 05:00:51;;;;;;;14.93;9.53;;;13.30;99.90;;;;;;5077139;28;20470;-54
2021/09/21 05:03:16;;;;;;;15.52;9.52;;;13.30;99.90;;;;;;5078486;28;20415;-54
2021/09/21 05:05:42;;;;;;;15.03;9.93;;;13.30;99.90;;;;;;5064338;28;20881;-54
2021/09/21 05:08:08;;;;;;;15.03;9.63;;;13.30;99.90;;;;;;5071794;28;20725;-54
2021/09/21 05:10:33;;;;;;;14.60;9.27;;;13.30;99.90;;;;;;5081345;28;20378;-54
2021/09/21 05:12:59;;;;;;;16.77;10.30;;;13.10;99.90;;;;;;5065087;28;20385;-54
2021/09/21 05:15:25;;;;;;;15.68;9.80;;;13.10;99.90;;;;;;5061647;28;20423;-54
2021/09/21 05:17:51;;;;;;;17.52;11.13;;;13.20;99.90;;;;;;5060042;28;20391;-54
2021/09/21 05:20:17;;;;;;;15.70;9.83;;;13.20;99.90;;;;;;5048972;28;20410;-53
2021/09/21 05:22:43;;;;;;;14.40;9.55;;;13.10;99.90;;;;;;5048482;28;20397;-53
2021/09/21 05:25:11;;;;;;;19.27;10.20;;;13.20;99.90;;;;;;5049027;28;20403;-53
2021/09/21 05:27:37;;;;;;;16.67;9.90;;;13.20;99.90;;;;;;5048881;28;20392;-53
2021/09/21 05:30:05;;;;;;;16.65;10.50;;;13.20;99.90;;;;;;5049277;28;20886;-53
2021/09/21 05:32:31;;;;;;;16.70;10.65;;;13.30;99.90;;;;;;5047272;28;20389;-53
2021/09/21 05:34:56;;;;;;;17.00;9.90;;;13.30;99.90;;;;;;5049211;28;20401;-53
2021/09/21 05:37:22;;;;;;;15.00;9.43;;;13.30;99.90;;;;;;5048084;28;20705;-53
2021/09/21 05:39:48;;;;;;;16.35;10.57;;;13.30;99.90;;;;;;5049135;28;20568;-53
2021/09/21 05:42:14;;;;;;;16.00;9.82;;;13.20;99.90;;;;;;5049009;28;20388;-54
2021/09/21 05:44:40;;;;;;;16.10;9.93;;;13.30;99.90;;;;;;5048511;28;20776;-53
2021/09/21 05:47:07;;;;;;;15.00;9.48;;;13.40;99.90;;;;;;5049157;28;20404;-53
2021/09/21 05:49:33;;;;;;;16.65;10.20;;;13.40;99.90;;;;;;5054622;28;20396;-53
2021/09/21 05:51:59;;;;;;;16.27;9.30;;;13.40;99.90;;;;;;5068875;28;20394;-53
2021/09/21 05:54:24;;;;;;;14.43;9.40;;;13.40;99.90;;;;;;5067887;28;20405;-53
2021/09/21 05:56:50;;;;;;;14.37;9.47;;;13.60;99.90;;;;;;5072801;28;20872;-53
2021/09/21 05:59:16;;;;;;;14.55;9.80;;;13.60;99.90;;;;;;5070647;28;20765;-53
2021/09/21 06:01:41;;;;;;;14.77;9.80;;;13.70;99.90;;;;;;5072551;28;20470;-53
2021/09/21 06:04:08;;;;;;;23.10;9.80;;;13.60;99.90;;;;;;5072545;28;20371;-53
2021/09/21 06:06:34;;;;;;;14.00;9.55;;;13.60;99.90;;;;;;5071823;28;20388;-53
2021/09/21 06:08:59;;;;;;;14.13;9.20;;;13.70;99.90;;;;;;5072757;28;20406;-53
2021/09/21 06:11:32;;;;;;;15.13;9.55;;;13.80;99.90;;;;;;5070524;28;20482;-53
2021/09/21 06:13:58;;;;;;;14.88;9.70;;;13.90;99.90;;;;;;5073137;28;20876;-54
2021/09/21 06:16:25;;;;;;;17.70;10.70;;;14.00;99.90;;;;;;5071871;28;20391;-54
2021/09/21 06:18:50;;;;;;;16.73;10.70;;;14.10;99.90;;;;;;5072580;28;20404;-54
2021/09/21 06:21:16;;;;;;;16.40;9.60;;;14.10;99.90;;;;;;5071746;28;20449;-54
2021/09/21 06:23:42;;;;;;;16.05;10.10;;;14.10;99.90;;;;;;5072311;28;20797;-54
2021/09/21 06:26:07;;;;;;;13.65;9.40;;;14.10;99.90;;;;;;5071995;28;20396;-54
2021/09/21 06:28:33;;;;;;;14.37;8.43;;;14.20;99.90;;;;;;5071743;28;20391;-54
2021/09/21 06:30:58;;;;;;;15.10;9.20;;;14.20;99.90;;;;;;5072212;28;20380;-54
2021/09/21 06:33:24;;;;;;;15.50;8.32;;;14.20;99.90;;;;;;5070372;28;20465;-54
2021/09/21 06:35:51;;;;;;;17.03;9.40;;;14.20;99.90;;;;;;5070400;28;20387;-54
2021/09/21 06:38:16;;;;;;;14.97;9.57;;;14.20;99.90;;;;;;5071582;28;20380;-55
2021/09/21 06:40:42;;;;;;;15.02;9.10;;;14.20;99.90;;;;;;5072086;28;20474;-55
2021/09/21 06:43:08;;;;;;;15.00;9.67;;;14.30;99.90;;;;;;5071900;28;20429;-54
2021/09/21 06:45:33;;;;;;;15.30;9.68;;;14.40;99.90;;;;;;5071730;28;20398;-54
2021/09/21 06:47:59;;;;;;;16.80;10.30;;;14.30;99.90;;;;;;5070940;28;20380;-54
2021/09/21 06:50:25;;;;;;;14.80;9.40;;;15.30;99.90;;;;;;5070912;28;20412;-54
2021/09/21 06:52:50;;;;;;;17.45;9.90;;;14.00;99.90;;;;;;5071876;28;20729;-54
2021/09/21 06:55:16;;;;;;;16.33;9.00;;;14.20;99.90;;;;;;5071206;28;20408;-54
2021/09/21 06:57:52;;;;;;;15.50;9.02;;;14.30;99.90;;;;;;5071634;28;20392;-55
2021/09/21 07:00:20;;;;;;;13.32;8.80;;;15.40;99.90;;;;;;5070892;28;20461;-53
2021/09/21 07:02:52;;;;;;;12.70;8.57;;;17.10;99.90;;;;;;5071865;28;20383;-53
2021/09/21 07:05:19;;;;;;;14.07;9.20;;;18.50;99.90;;;;;;5070778;28;20924;-55
2021/09/21 07:07:46;;;;;;;13.50;8.13;;;19.30;99.90;;;;;;5071518;28;20427;-54
2021/09/21 07:10:13;;;;;;;13.23;8.40;;;20.40;99.90;;;;;;5071446;28;20380;-54
2021/09/21 07:12:40;;;;;;;12.10;8.30;;;20.50;99.90;;;;;;5071521;28;20405;-55
2021/09/21 07:15:07;;;;;;;13.38;8.10;;;21.20;99.90;;;;;;5071509;28;20434;-54
2021/09/21 07:17:32;;;;;;;12.60;8.40;;;21.90;98.50;;;;;;5070326;28;20457;-55
2021/09/21 07:19:58;;;;;;;11.30;8.80;;;21.80;97.10;;;;;;5070356;28;20428;-55
2021/09/21 07:22:24;;;;;;;16.03;8.60;;;22.20;97.50;;;;;;5070266;28;20467;-55
2021/09/21 07:24:50;;;;;;;12.70;8.30;;;23.40;93.90;;;;;;5071619;28;20399;-55
2021/09/21 07:27:16;;;;;;;14.55;7.60;;;23.30;92.50;;;;;;5071060;28;20379;-54
2021/09/21 07:29:42;;;;;;;12.75;8.38;;;23.00;92.70;;;;;;5070548;28;20415;-55
2021/09/21 07:32:08;;;;;;;11.48;7.90;;;23.10;91.50;;;;;;5071214;28;20463;-54
2021/09/21 07:34:34;;;;;;;11.73;9.63;;;23.10;91.10;;;;;;5070408;28;20639;-54
2021/09/21 07:37:00;;;;;;;13.70;10.37;;;24.20;90.20;;;;;;5070722;28;20407;-55
2021/09/21 07:39:26;;;;;;;14.45;11.90;;;25.10;85.40;;;;;;5070165;28;20456;-55
2021/09/21 07:41:52;;;;;;;13.10;11.80;;;25.30;80.40;;;;;;5069738;28;20391;-55
2021/09/21 07:44:18;;;;;;;14.98;8.00;;;25.50;78.70;;;;;;5070315;28;20376;-55
2021/09/21 07:46:44;;;;;;;13.70;8.23;;;24.50;77.90;;;;;;5070866;28;20406;-55
2021/09/21 07:49:10;;;;;;;13.13;8.37;;;23.70;80.80;;;;;;5070845;28;21073;-54
2021/09/21 07:51:35;;;;;;;11.57;8.00;;;23.50;81.20;;;;;;5069859;28;20856;-55
2021/09/21 07:54:01;;;;;;;13.30;7.57;;;22.90;77.10;;;;;;5070667;28;20479;-55
2021/09/21 07:56:28;;;;;;;12.50;8.55;;;22.70;79.70;;;;;;5069622;28;20403;-56
2021/09/21 07:58:54;;;;;;;13.57;7.80;;;22.50;81.70;;;;;;5069083;28;20784;-55
2021/09/21 08:01:20;;;;;;;13.97;7.17;;;22.40;80.30;;;;;;5069780;28;20379;-56
2021/09/21 08:03:46;;;;;;;11.65;7.80;;;23.40;79.00;;;;;;5070421;28;20805;-56
2021/09/21 08:06:11;;;;;;;11.77;8.07;;;23.50;77.60;;;;;;5070680;28;20383;-56
2021/09/21 08:08:41;;;;;;;12.05;8.02;;;23.40;77.40;;;;;;5069806;28;20376;-56
2021/09/21 08:11:10;;;;;;;11.45;7.32;;;23.00;77.30;;;;;;5070639;28;20454;-56
2021/09/21 08:13:36;;;;;;;11.90;7.70;;;22.90;77.30;;;;;;5069867;28;20476;-56
2021/09/21 08:16:02;;;;;;;12.93;7.75;;;23.10;76.90;;;;;;5069968;28;20521;-56
2021/09/21 08:18:28;;;;;;;10.88;8.00;;;23.30;75.30;;;;;;5069239;28;20383;-56
2021/09/21 08:20:54;;;;;;;10.73;7.30;;;23.90;75.00;;;;;;5069934;28;20740;-56
2021/09/21 08:23:20;;;;;;;12.70;7.70;;;24.70;72.90;;;;;;5069022;28;20388;-56
2021/09/21 08:25:46;;;;;;;12.65;8.20;;;25.40;69.60;;;;;;5069573;28;20431;-56
2021/09/21 08:28:11;;;;;;;13.30;7.90;;;26.50;66.30;;;;;;5070049;28;20380;-56
2021/09/21 08:30:37;;;;;;;21.60;11.95;;;25.70;65.90;;;;;;5069243;28;20442;-56
2021/09/21 08:33:03;;;;;;;13.90;12.47;;;25.40;65.20;;;;;;5069937;28;20734;-55
2021/09/21 08:35:30;;;;;;;12.33;11.00;;;26.10;65.40;;;;;;5069096;28;20395;-56
2021/09/21 08:37:57;;;;;;;11.50;7.97;;;25.90;61.90;;;;;;5069541;28;20398;-56
2021/09/21 08:40:23;;;;;;;12.75;9.80;;;25.60;59.60;;;;;;5068977;28;20411;-56
2021/09/21 08:42:48;;;;;;;14.63;11.20;;;26.20;58.70;;;;;;5069764;28;20715;-56
2021/09/21 08:45:14;;;;;;;13.32;7.70;;;26.90;56.70;;;;;;5069874;28;20468;-56
2021/09/21 08:47:41;;;;;;;12.23;7.20;;;26.50;57.60;;;;;;5069173;28;20406;-56
2021/09/21 08:50:10;;;;;;;10.30;6.20;;;26.80;54.90;;;;;;5070093;28;20442;-56
2021/09/21 08:52:40;;;;;;;12.50;9.85;;;27.10;53.80;;;;;;5068827;28;20391;-57
2021/09/21 08:55:08;;;;;;;10.75;8.00;;;28.10;51.60;;;;;;5069286;28;20766;-57
2021/09/21 08:57:35;;;;;;;8.95;6.40;;;28.20;51.40;;;;;;5068933;28;20399;-57
2021/09/21 09:00:01;;;;;;;14.75;13.10;;;28.20;50.20;;;;;;5069281;28;20435;-56
2021/09/21 09:02:27;;;;;;;13.97;11.40;;;26.90;51.00;;;;;;5069085;28;20408;-56
2021/09/21 09:05:03;;;;;;;12.80;11.50;;;27.10;51.20;;;;;;5069421;28;20797;-56
2021/09/21 09:07:36;;;;;;;13.30;10.73;;;26.60;51.10;;;;;;5068446;28;20380;-54
2021/09/21 09:10:05;;;;;;;12.40;10.40;;;26.10;52.00;;;;;;5069405;28;20424;-56
2021/09/21 09:12:34;;;;;;;11.98;10.77;;;26.50;51.90;;;;;;5068230;28;20395;-56
2021/09/21 09:15:09;;;;;;;14.10;12.80;;;28.10;49.80;;;;;;5069447;28;20376;-56
2021/09/21 09:17:35;;;;;;;11.90;10.80;;;29.30;45.80;;;;;;5068722;28;20371;-56
2021/09/21 09:20:01;;;;;;;12.60;11.30;;;29.10;45.60;;;;;;5068954;28;20706;-56
2021/09/21 09:22:27;;;;;;;33.07;11.33;;;29.00;45.40;;;;;;5068712;28;20515;-57
2021/09/21 09:24:57;;;;;;;12.70;11.50;;;29.10;45.30;;;;;;5069151;28;20395;-56
2021/09/21 09:27:37;;;;;;;12.82;10.10;;;28.70;45.60;;;;;;5068336;28;20420;-57
2021/09/21 09:30:11;;;;;;;9.27;6.45;;;28.60;44.90;;;;;;5068605;28;20395;-56
2021/09/21 09:32:47;;;;;;;9.68;6.70;;;28.00;45.80;;;;;;5068315;28;20383;-57
2021/09/21 09:35:27;;;;;;;11.10;9.90;;;28.00;46.60;;;;;;5069010;28;20383;-57
2021/09/21 09:37:53;;;;;;;10.52;9.43;;;28.50;45.40;;;;;;5069184;28;20394;-56
2021/09/21 09:40:20;;;;;;;12.10;10.90;;;28.10;44.60;;;;;;5068415;28;20500;-56
2021/09/21 09:42:48;;;;;;;11.60;10.40;;;27.30;45.80;;;;;;5068856;28;20467;-56
2021/09/21 09:45:29;;;;;;;11.73;9.10;;;27.50;46.70;;;;;;5069252;28;20391;-56
2021/09/21 09:47:56;;;;;;;11.37;9.47;;;28.10;45.20;;;;;;5068949;28;20383;-56
2021/09/21 09:50:30;;;;;;;13.45;11.00;;;28.10;45.20;;;;;;5068196;28;20390;-57
2021/09/21 09:53:06;;;;;;;12.60;10.55;;;27.60;45.60;;;;;;5068885;28;20371;-56
2021/09/21 09:55:34;;;;;;;11.53;9.73;;;27.80;44.20;;;;;;5068101;28;20784;-56
2021/09/21 09:58:01;;;;;;;11.20;9.23;;;27.20;45.70;;;;;;5068727;28;20390;-56
2021/09/21 10:00:27;;;;;;;11.60;9.70;;;26.60;46.10;;;;;;5067832;28;20904;-56
2021/09/21 10:02:53;;;;;;;12.00;10.80;;;26.10;47.40;;;;;;5067688;28;20445;-56
2021/09/21 10:05:20;;;;;;;11.90;10.00;;;25.90;48.60;;;;;;5068558;28;20395;-54
2021/09/21 10:07:46;;;;;;;11.50;10.15;;;25.40;49.00;;;;;;5068967;28;20772;-54
2021/09/21 10:10:12;;;;;;;10.68;9.10;;;24.80;50.70;;;;;;5067036;28;20441;-54
2021/09/21 10:12:38;;;;;;;12.57;10.20;;;24.90;50.80;;;;;;5067589;28;20387;-55
2021/09/21 10:15:06;;;;;;;12.20;9.20;;;24.90;50.30;;;;;;5068439;28;20441;-55
2021/09/21 10:17:35;;;;;;;12.63;9.18;;;25.60;50.70;;;;;;5067759;28;20388;-55
2021/09/21 10:20:01;;;;;;;12.00;10.80;;;26.60;48.30;;;;;;5068449;28;20484;-57
2021/09/21 10:22:29;;;;;;;12.02;10.07;;;27.20;47.50;;;;;;5068085;28;20376;-58
2021/09/21 10:25:04;;;;;;;10.77;9.40;;;26.70;47.60;;;;;;5068324;28;20384;-55
2021/09/21 10:27:29;;;;;;;10.30;8.50;;;26.20;48.10;;;;;;5066254;28;20396;-55
2021/09/21 10:30:08;;;;;;;12.15;9.68;;;25.80;49.10;;;;;;5067139;28;20729;-55
2021/09/21 10:32:46;;;;;;;11.55;9.10;;;25.90;49.30;;;;;;5066375;28;20419;-57
2021/09/21 10:35:15;;;;;;;11.30;9.70;;;26.50;49.10;;;;;;5068154;28;20392;-56
2021/09/21 10:37:41;;;;;;;11.63;9.57;;;27.10;48.20;;;;;;5067630;28;20983;-56
2021/09/21 10:40:08;;;;;;;11.32;9.77;;;27.80;47.40;;;;;;5067297;28;20447;-58
2021/09/21 10:42:34;;;;;;;12.70;9.90;;;27.50;47.00;;;;;;5070713;28;20395;-56
2021/09/21 10:45:02;;;;;;;12.32;10.43;;;26.80;47.60;;;;;;5071935;28;20383;-55
2021/09/21 10:47:29;;;;;;;11.85;10.43;;;26.70;47.90;;;;;;5070857;28;20855;-56
2021/09/21 10:50:18;;;;;;;10.27;9.18;;;26.90;47.70;;;;;;5071730;28;20396;-57
2021/09/21 10:52:44;;;;;;;10.55;9.43;;;27.00;48.30;;;;;;5071007;28;20524;-57
2021/09/21 10:55:18;;;;;;;13.07;10.53;;;27.30;47.20;;;;;;5071603;28;21335;-57
2021/09/21 10:57:46;;;;;;;10.43;9.10;;;26.80;48.30;;;;;;5071192;28;20394;-57
2021/09/21 11:00:14;;;;;;;11.60;10.13;;;27.10;47.00;;;;;;5071600;28;20403;-56
2021/09/21 11:02:43;;;;;;;12.25;9.48;;;26.40;48.30;;;;;;5070864;28;20416;-56
2021/09/21 11:05:14;;;;;;;13.10;11.50;;;25.60;49.10;;;;;;5071679;28;20388;-56
2021/09/21 11:07:55;;;;;;;12.40;9.82;;;24.00;50.90;;;;;;5071108;28;20542;-56
2021/09/21 11:10:24;;;;;;;11.30;9.70;;;23.20;52.50;;;;;;5071551;28;20383;-56
2021/09/21 11:12:51;;;;;;;11.10;9.70;;;23.00;53.30;;;;;;5071473;28;20452;-56
2021/09/21 11:15:18;;;;;;;12.27;9.48;;;23.10;53.80;;;;;;5071758;28;20384;-56
2021/09/21 11:17:44;;;;;;;11.50;9.25;;;22.60;54.40;;;;;;5066210;28;20629;-56
2021/09/21 11:20:10;;;;;;;13.93;9.70;;;22.10;55.50;;;;;;5092884;28;20446;-56
2021/09/21 11:22:37;;;;;;;11.17;8.50;;;22.20;55.10;;;;;;5062855;28;20388;-56
2021/09/21 11:25:06;;;;;;;11.82;9.65;;;22.10;54.70;;;;;;5051457;28;20484;-55
2021/09/21 11:27:40;;;;;;;11.00;9.38;;;21.40;56.50;;;;;;5048684;28;20397;-56
2021/09/21 11:30:13;;;;;;;11.13;7.72;;;21.10;56.80;;;;;;5059461;28;20383;-55
2021/09/21 11:32:41;;;;;;;10.67;6.33;;;21.00;57.20;;;;;;5070011;28;20506;-55
2021/09/21 11:35:10;;;;;;;11.00;7.07;;;21.30;57.20;;;;;;5070917;28;20428;-55
2021/09/21 11:37:37;;;;;;;13.82;6.85;;;21.30;57.60;;;;;;5070459;28;20372;-56
2021/09/21 11:40:04;;;;;;;13.05;6.93;;;21.40;57.80;;;;;;5070895;28;20404;-56
2021/09/21 11:42:32;;;;;;;12.73;6.90;;;22.10;56.00;;;;;;5070346;28;20912;-56
2021/09/21 11:45:10;;;;;;;10.77;6.70;;;22.20;56.20;;;;;;5070823;28;20524;-56
2021/09/21 11:47:49;;;;;;;10.00;6.70;;;21.80;56.80;;;;;;5070009;28;20709;-55
2021/09/21 11:50:20;;;;;;;11.50;6.90;;;21.40;57.20;;;;;;5069442;28;20768;-55
2021/09/21 11:52:57;;;;;;;11.50;6.80;;;21.30;57.30;;;;;;5068313;28;20411;-55
2021/09/21 11:55:26;;;;;;;10.05;6.65;;;21.30;57.90;;;;;;5067335;28;20873;-56
2021/09/21 11:57:52;;;;;;;11.20;7.03;;;21.20;58.40;;;;;;5069947;28;20395;-55
2021/09/21 12:00:24;;;;;;;11.35;7.15;;;21.30;58.40;;;;;;5069520;28;20408;-56
2021/09/21 12:02:58;;;;;;;12.20;6.75;;;21.50;58.10;;;;;;5068368;28;20479;-56
2021/09/21 12:05:25;;;;;;;10.27;6.85;;;21.50;58.90;;;;;;5065821;28;20410;-56
2021/09/21 12:07:52;;;;;;;10.98;7.40;;;21.50;58.00;;;;;;5068490;28;20380;-56
2021/09/21 12:10:19;;;;;;;10.30;6.80;;;21.00;59.60;;;;;;5068514;28;20479;-56
2021/09/21 12:12:45;;;;;;;13.70;7.68;;;21.30;58.80;;;;;;5069138;28;20441;-56
2021/09/21 12:15:12;;;;;;;10.40;6.95;;;21.60;58.10;;;;;;5069674;28;20388;-56
2021/09/21 12:17:45;;;;;;;10.70;7.47;;;21.70;58.10;;;;;;5068638;28;20502;-56
2021/09/21 12:20:12;;;;;;;14.82;7.30;;;21.50;58.30;;;;;;5069879;28;20422;-56
2021/09/21 12:22:39;;;;;;;11.70;7.28;;;21.10;58.50;;;;;;5069006;28;20388;-56
2021/09/21 12:25:09;;;;;;;12.20;7.00;;;21.20;58.60;;;;;;5069865;28;20442;-56
2021/09/21 12:27:38;;;;;;;11.02;6.90;;;21.40;57.70;;;;;;5069284;28;20834;-56
2021/09/21 12:30:09;;;;;;;9.93;6.63;;;21.50;57.80;;;;;;5068794;28;20402;-56
2021/09/21 12:32:36;;;;;;;12.00;7.00;;;21.60;58.00;;;;;;5069313;28;20902;-56
2021/09/21 12:35:08;;;;;;;10.20;6.70;;;21.50;58.60;;;;;;5069883;28;20376;-56
2021/09/21 12:37:41;;;;;;;10.20;6.28;;;21.60;57.80;;;;;;5069085;28;20380;-57
2021/09/21 12:40:10;;;;;;;11.90;7.00;;;21.60;58.80;;;;;;5070098;28;20415;-56
2021/09/21 12:42:36;;;;;;;11.38;6.97;;;21.50;58.10;;;;;;5068619;28;20388;-56
2021/09/21 12:45:04;;;;;;;10.30;6.70;;;21.70;59.00;;;;;;5068954;28;20391;-56
2021/09/21 12:47:30;;;;;;;11.30;7.18;;;21.80;59.40;;;;;;5068645;28;20474;-56
2021/09/21 12:49:57;;;;;;;10.18;6.65;;;21.80;58.60;;;;;;5069478;28;20432;-56